createdAt,value
2022-10-31T00:01:14.360Z,10.90
2022-10-31T00:03:42.413Z,11.23
2022-10-31T00:06:10.434Z,11.13
2022-10-31T00:08:38.604Z,11.65
2022-10-31T00:11:10.897Z,11.90
2022-10-31T00:13:38.928Z,12.32
2022-10-31T00:16:07.691Z,13.05
2022-10-31T00:18:37.144Z,12.07
2022-10-31T00:21:05.948Z,13.68
2022-10-31T00:23:34.059Z,12.18
2022-10-31T00:26:03.820Z,12.02
2022-10-31T00:28:35.704Z,11.32
2022-10-31T00:31:04.662Z,10.60
2022-10-31T00:33:34.905Z,11.18
2022-10-31T00:36:05.144Z,10.88
2022-10-31T00:38:33.435Z,11.25
2022-10-31T00:41:01.823Z,11.52
2022-10-31T00:43:29.927Z,12.52
2022-10-31T00:45:58.351Z,10.93
2022-10-31T00:48:26.922Z,11.10
2022-10-31T00:50:54.956Z,11.38
2022-10-31T00:53:25.978Z,10.93
2022-10-31T00:55:54.234Z,10.70
2022-10-31T00:58:22.608Z,10.48
2022-10-31T01:00:55.869Z,10.27
2022-10-31T01:03:25.044Z,10.30
2022-10-31T01:06:00.543Z,10.50
2022-10-31T01:08:30.878Z,11.63
2022-10-31T01:11:03.697Z,11.80
2022-10-31T01:13:31.917Z,11.13
2022-10-31T01:16:01.283Z,10.60
2022-10-31T01:18:29.968Z,10.70
2022-10-31T01:21:03.366Z,10.32
2022-10-31T01:23:33.317Z,10.10
2022-10-31T01:26:06.991Z,10.13
2022-10-31T01:28:35.963Z,9.75
2022-10-31T01:31:05.938Z,10.43
2022-10-31T01:33:36.303Z,10.48
2022-10-31T01:36:13.775Z,9.13
2022-10-31T01:38:43.424Z,9.93
2022-10-31T01:41:12.260Z,9.48
2022-10-31T01:43:59.414Z,9.55
2022-10-31T01:46:31.079Z,9.70
2022-10-31T01:49:02.194Z,9.43
2022-10-31T01:51:35.124Z,10.45
2022-10-31T01:54:09.794Z,9.38
2022-10-31T01:56:43.054Z,9.05
2022-10-31T01:59:15.771Z,9.48
2022-10-31T02:01:44.362Z,8.70
2022-10-31T02:04:13.314Z,9.02
2022-10-31T02:06:58.479Z,8.60
2022-10-31T02:11:59.871Z,8.27
2022-10-31T02:14:29.995Z,8.52
2022-10-31T02:16:58.696Z,8.55
2022-10-31T02:19:36.266Z,8.52
2022-10-31T02:22:11.574Z,8.82
2022-10-31T02:24:48.796Z,9.38
2022-10-31T02:27:51.127Z,8.38
2022-10-31T02:30:23.841Z,9.23
2022-10-31T02:33:01.602Z,8.27
2022-10-31T02:35:41.463Z,8.57
2022-10-31T02:38:25.307Z,8.10
2022-10-31T02:41:01.895Z,7.70
2022-10-31T02:43:51.072Z,8.63
2022-10-31T02:46:29.449Z,7.15
2022-10-31T02:49:05.375Z,7.30
2022-10-31T02:51:33.498Z,7.88
2022-10-31T02:54:01.530Z,7.32
2022-10-31T02:56:29.795Z,7.80
2022-10-31T02:59:01.863Z,8.68
2022-10-31T03:01:52.551Z,8.60
2022-10-31T03:04:54.870Z,7.97
2022-10-31T03:07:31.076Z,7.88
2022-10-31T03:10:09.811Z,7.85
2022-10-31T03:12:46.022Z,8.20
2022-10-31T03:15:23.343Z,7.72
2022-10-31T03:17:57.327Z,8.60
2022-10-31T03:20:32.039Z,8.73
2022-10-31T03:23:03.104Z,8.88
2022-10-31T03:25:33.865Z,8.48
2022-10-31T03:28:05.101Z,8.27
2022-10-31T03:30:37.819Z,8.52
2022-10-31T03:33:11.907Z,7.72
2022-10-31T03:35:44.796Z,7.95
2022-10-31T03:38:14.543Z,8.75
2022-10-31T03:40:47.688Z,7.72
2022-10-31T03:45:54.700Z,7.70
2022-10-31T03:48:23.743Z,8.02
2022-10-31T03:51:07.600Z,8.02
2022-10-31T03:53:40.835Z,6.88
2022-10-31T03:56:14.716Z,8.15
2022-10-31T03:58:50.590Z,7.47
2022-10-31T04:01:21.851Z,7.35
2022-10-31T04:03:51.623Z,7.40
2022-10-31T04:06:23.641Z,7.70
2022-10-31T04:08:55.692Z,7.72
2022-10-31T04:11:28.202Z,6.90
2022-10-31T04:14:16.269Z,7.57
2022-10-31T04:16:46.167Z,7.43
2022-10-31T04:19:14.911Z,7.70
2022-10-31T04:21:45.315Z,7.28
2022-10-31T04:24:13.644Z,7.20
2022-10-31T04:26:43.031Z,8.30
2022-10-31T04:29:11.391Z,8.15
2022-10-31T04:31:40.184Z,7.30
2022-10-31T04:34:09.014Z,7.28
2022-10-31T04:36:37.009Z,7.05
2022-10-31T04:39:06.453Z,7.63
2022-10-31T04:44:20.078Z,7.50
2022-10-31T04:46:52.326Z,7.97
2022-10-31T04:49:20.323Z,6.97
2022-10-31T04:51:49.032Z,8.30
2022-10-31T04:54:19.484Z,7.07
2022-10-31T04:57:06.079Z,7.50
2022-10-31T04:59:34.690Z,7.82
2022-10-31T05:02:02.800Z,7.88
2022-10-31T05:04:51.223Z,7.53
2022-10-31T05:07:20.124Z,7.75
2022-10-31T05:09:49.511Z,7.93
2022-10-31T05:12:20.240Z,8.30
2022-10-31T05:15:25.113Z,9.80
2022-10-31T05:18:20.757Z,9.13
2022-10-31T05:20:54.819Z,8.30
2022-10-31T05:23:35.946Z,8.98
2022-10-31T05:26:07.162Z,8.77
2022-10-31T05:28:35.887Z,8.65
2022-10-31T05:31:05.746Z,8.10
2022-10-31T05:33:33.995Z,8.02
2022-10-31T05:36:10.986Z,8.35
2022-10-31T05:38:58.243Z,7.88
2022-10-31T05:41:30.952Z,8.70
2022-10-31T05:44:15.072Z,10.27
2022-10-31T05:46:59.210Z,9.45
2022-10-31T05:49:35.886Z,9.65
2022-10-31T05:52:03.908Z,9.23
2022-10-31T05:54:40.079Z,8.95
2022-10-31T05:57:09.565Z,9.77
2022-10-31T05:59:38.124Z,8.77
2022-10-31T06:02:06.161Z,7.60
2022-10-31T06:05:03.668Z,8.43
2022-10-31T06:07:37.213Z,8.55
2022-10-31T06:10:07.892Z,8.50
2022-10-31T06:12:38.691Z,9.05
2022-10-31T06:15:23.410Z,8.85
2022-10-31T06:18:00.942Z,8.23
2022-10-31T06:20:31.270Z,8.90
2022-10-31T06:23:05.137Z,8.07
2022-10-31T06:25:34.974Z,12.27
2022-10-31T06:28:06.158Z,30.92
2022-10-31T06:31:06.478Z,7.85
2022-10-31T06:33:34.994Z,7.90
2022-10-31T06:36:03.677Z,7.57
2022-10-31T06:38:32.384Z,6.95
2022-10-31T06:41:04.586Z,7.00
2022-10-31T06:43:41.967Z,7.30
2022-10-31T06:46:31.478Z,7.20
2022-10-31T06:49:14.765Z,7.68
2022-10-31T06:51:49.481Z,6.70
2022-10-31T06:54:19.289Z,6.63
2022-10-31T06:56:48.506Z,6.25
2022-10-31T06:59:18.787Z,6.18
2022-10-31T07:02:07.538Z,6.25
2022-10-31T07:04:36.320Z,6.13
2022-10-31T07:07:04.546Z,7.07
2022-10-31T07:09:33.368Z,6.95
2022-10-31T07:12:04.633Z,7.45
2022-10-31T07:14:37.822Z,6.60
2022-10-31T07:17:05.922Z,5.47
2022-10-31T07:19:39.005Z,6.05
2022-10-31T07:22:07.109Z,6.10
2022-10-31T07:24:36.217Z,6.45
2022-10-31T07:27:41.682Z,5.60
2022-10-31T07:30:14.301Z,6.40
2022-10-31T07:32:43.050Z,6.13
2022-10-31T07:35:13.037Z,6.90
2022-10-31T07:37:48.589Z,5.90
2022-10-31T07:40:18.550Z,5.93
2022-10-31T07:42:48.594Z,5.88
2022-10-31T07:45:37.958Z,6.32
2022-10-31T07:48:24.602Z,5.85
2022-10-31T07:51:11.577Z,5.80
2022-10-31T07:54:11.610Z,5.40
2022-10-31T07:56:39.785Z,5.47
2022-10-31T07:59:08.417Z,8.25
2022-10-31T08:01:37.999Z,105.15
2022-10-31T08:04:25.948Z,25.05
2022-10-31T08:07:24.200Z,11.23
2022-10-31T08:09:59.452Z,6.90
2022-10-31T08:12:31.447Z,5.93
2022-10-31T08:14:59.785Z,6.00
2022-10-31T08:17:30.596Z,6.18
2022-10-31T08:20:02.599Z,6.25
2022-10-31T08:22:39.859Z,6.15
2022-10-31T08:25:12.026Z,5.72
2022-10-31T08:27:40.689Z,5.80
2022-10-31T08:30:16.285Z,6.35
2022-10-31T08:33:02.061Z,5.43
2022-10-31T08:35:49.591Z,6.13
2022-10-31T08:38:43.437Z,5.35
2022-10-31T08:41:12.541Z,5.75
2022-10-31T08:43:40.807Z,6.13
2022-10-31T08:46:09.141Z,6.50
2022-10-31T08:48:39.912Z,5.60
2022-10-31T08:51:08.815Z,5.22
2022-10-31T08:53:37.037Z,5.85
2022-10-31T08:56:25.673Z,6.28
2022-10-31T08:58:55.001Z,5.45
2022-10-31T09:01:32.645Z,5.65
2022-10-31T09:04:02.291Z,5.65
2022-10-31T09:06:30.837Z,5.43
2022-10-31T09:09:01.499Z,5.30
2022-10-31T09:11:29.541Z,5.20
2022-10-31T09:14:20.042Z,5.10
2022-10-31T09:17:16.946Z,5.40
2022-10-31T09:20:07.155Z,5.43
2022-10-31T09:22:36.869Z,5.63
2022-10-31T09:25:05.289Z,5.75
2022-10-31T09:27:33.405Z,5.32
2022-10-31T09:30:02.254Z,6.68
2022-10-31T09:32:30.620Z,5.35
2022-10-31T09:34:58.719Z,5.15
2022-10-31T09:37:28.114Z,5.32
2022-10-31T09:39:56.115Z,7.05
2022-10-31T09:42:52.125Z,6.50
2022-10-31T09:45:31.630Z,7.22
2022-10-31T09:48:23.654Z,6.25
2022-10-31T09:51:13.506Z,6.57
2022-10-31T09:53:47.418Z,6.82
2022-10-31T09:56:22.125Z,7.70
2022-10-31T09:58:54.860Z,7.70
2022-10-31T10:01:35.297Z,7.40
2022-10-31T10:04:18.308Z,8.10
2022-10-31T10:07:00.085Z,8.23
2022-10-31T10:09:47.924Z,8.18
2022-10-31T10:12:56.210Z,8.80
2022-10-31T10:15:45.417Z,7.75
2022-10-31T10:18:25.235Z,7.43
2022-10-31T10:21:04.955Z,7.50
2022-10-31T10:23:45.579Z,7.55
2022-10-31T10:26:20.572Z,7.35
2022-10-31T10:28:53.276Z,7.85
2022-10-31T10:31:25.507Z,8.10
2022-10-31T10:34:03.887Z,7.60
2022-10-31T10:36:40.106Z,7.55
2022-10-31T10:39:16.857Z,7.88
2022-10-31T10:42:03.748Z,8.10
2022-10-31T10:44:49.697Z,7.50
2022-10-31T10:47:35.216Z,7.80
2022-10-31T10:50:09.088Z,7.55
2022-10-31T10:52:50.880Z,7.97
2022-10-31T10:55:30.295Z,8.23
2022-10-31T10:58:03.204Z,9.07
2022-10-31T11:00:34.364Z,8.80
2022-10-31T11:03:02.879Z,8.98
2022-10-31T11:05:38.081Z,8.30
2022-10-31T11:08:07.607Z,7.82
2022-10-31T11:10:36.806Z,8.70
2022-10-31T11:13:22.636Z,8.23
2022-10-31T11:15:55.348Z,8.75
2022-10-31T11:18:27.435Z,8.52
2022-10-31T11:20:57.372Z,8.75
2022-10-31T11:23:27.173Z,8.80
2022-10-31T11:25:58.104Z,9.10
2022-10-31T11:28:30.249Z,9.60
2022-10-31T11:31:00.414Z,9.45
2022-10-31T11:33:32.841Z,10.40
2022-10-31T11:36:03.196Z,10.60
2022-10-31T11:38:37.090Z,10.35
2022-10-31T11:41:13.622Z,11.10
2022-10-31T11:43:57.463Z,10.88
2022-10-31T11:46:32.773Z,10.50
2022-10-31T11:49:01.332Z,10.23
2022-10-31T11:51:33.697Z,10.20
2022-10-31T11:54:04.856Z,11.02
2022-10-31T11:56:40.267Z,11.00
2022-10-31T11:59:25.410Z,10.48
2022-10-31T12:01:55.483Z,10.20
2022-10-31T12:04:36.042Z,11.13
2022-10-31T12:07:04.345Z,11.05
2022-10-31T12:09:36.615Z,13.32
2022-10-31T12:12:19.312Z,11.23
2022-10-31T12:15:02.001Z,11.60
2022-10-31T12:17:38.694Z,9.93
2022-10-31T12:20:19.690Z,12.05
2022-10-31T12:22:53.927Z,13.52
2022-10-31T12:25:32.200Z,11.68
2022-10-31T12:28:16.801Z,12.38
2022-10-31T12:30:59.353Z,12.02
2022-10-31T12:33:52.765Z,10.07
2022-10-31T12:36:38.596Z,10.55
2022-10-31T12:39:23.779Z,12.30
2022-10-31T12:44:55.010Z,11.07
2022-10-31T12:47:40.844Z,11.82
2022-10-31T12:50:24.740Z,11.65
2022-10-31T12:53:03.531Z,12.07
2022-10-31T12:55:45.068Z,11.30
2022-10-31T12:58:21.823Z,10.57
2022-10-31T13:00:54.051Z,12.38
2022-10-31T13:03:32.411Z,11.90
2022-10-31T13:06:05.605Z,12.05
2022-10-31T13:08:38.503Z,12.02
2022-10-31T13:11:12.668Z,12.10
2022-10-31T13:13:45.480Z,11.30
2022-10-31T13:16:17.757Z,11.85
2022-10-31T13:18:50.996Z,10.68
2022-10-31T13:21:23.425Z,9.95
2022-10-31T13:23:53.186Z,11.27
2022-10-31T13:26:37.268Z,11.05
2022-10-31T13:29:15.507Z,10.48
2022-10-31T13:31:44.227Z,10.35
2022-10-31T13:34:24.028Z,11.02
2022-10-31T13:37:00.408Z,10.38
2022-10-31T13:39:39.464Z,11.25
2022-10-31T13:42:17.795Z,11.85
2022-10-31T13:44:45.863Z,13.02
2022-10-31T13:47:31.916Z,12.68
2022-10-31T13:50:22.604Z,12.73
2022-10-31T13:52:50.798Z,12.38
2022-10-31T13:55:39.193Z,13.05
2022-10-31T13:58:21.348Z,12.80
2022-10-31T14:01:01.306Z,13.10
2022-10-31T14:04:02.203Z,12.23
2022-10-31T14:06:20.945Z,12.80
2022-10-31T14:08:52.230Z,13.38
2022-10-31T14:11:25.885Z,12.88
2022-10-31T14:13:54.356Z,11.50
2022-10-31T14:16:26.338Z,11.18
2022-10-31T14:19:06.737Z,10.90
2022-10-31T14:21:42.911Z,12.20
2022-10-31T14:24:17.600Z,11.95
2022-10-31T14:26:57.376Z,12.63
2022-10-31T14:29:28.408Z,11.20
2022-10-31T14:32:00.845Z,11.70
2022-10-31T14:34:32.917Z,12.45
2022-10-31T14:37:35.030Z,12.13
2022-10-31T14:40:24.944Z,11.45
2022-10-31T14:43:29.458Z,11.15
2022-10-31T14:46:03.138Z,11.07
2022-10-31T14:48:58.546Z,17.73
2022-10-31T14:51:31.015Z,10.75
2022-10-31T14:54:02.636Z,12.30
2022-10-31T14:56:32.562Z,14.05
2022-10-31T14:59:03.793Z,12.52
2022-10-31T15:01:34.766Z,10.40
2022-10-31T15:04:22.915Z,10.57
2022-10-31T15:06:54.890Z,10.73
2022-10-31T15:09:26.000Z,9.88
2022-10-31T15:11:54.095Z,11.07
2022-10-31T15:14:28.013Z,10.57
2022-10-31T15:16:58.867Z,8.90
2022-10-31T15:19:29.523Z,9.38
2022-10-31T15:21:59.576Z,10.60
2022-10-31T15:24:34.781Z,11.07
2022-10-31T15:27:10.346Z,10.57
2022-10-31T15:29:38.361Z,10.43
2022-10-31T15:32:20.710Z,13.82
2022-10-31T15:34:48.908Z,12.60
2022-10-31T15:37:19.638Z,12.32
2022-10-31T15:39:50.165Z,10.93
2022-10-31T15:42:24.207Z,11.88
2022-10-31T15:45:02.645Z,12.45
2022-10-31T15:47:33.982Z,15.20
2022-10-31T15:50:03.608Z,12.45
2022-10-31T15:52:35.197Z,12.88
2022-10-31T15:55:07.834Z,12.07
2022-10-31T15:57:41.330Z,13.80
2022-10-31T16:00:24.838Z,16.80
2022-10-31T16:03:04.889Z,20.73
2022-10-31T16:05:38.536Z,20.48
2022-10-31T16:08:24.719Z,20.77
2022-10-31T16:10:55.989Z,18.15
2022-10-31T16:13:30.979Z,16.92
2022-10-31T16:18:51.960Z,16.55
2022-10-31T16:21:27.527Z,19.13
2022-10-31T16:24:03.802Z,17.80
2022-10-31T16:26:35.916Z,16.77
2022-10-31T16:29:05.762Z,19.63
2022-10-31T16:31:39.650Z,19.23
2022-10-31T16:34:16.145Z,23.80
2022-10-31T16:36:44.601Z,21.52
2022-10-31T16:39:14.484Z,20.50
2022-10-31T16:41:44.928Z,21.83
2022-10-31T16:44:20.770Z,19.45
2022-10-31T16:46:49.017Z,21.55
2022-10-31T16:49:17.614Z,22.08
2022-10-31T16:51:46.620Z,22.40
2022-10-31T16:54:14.761Z,21.65
2022-10-31T16:56:44.208Z,21.83
2022-10-31T16:59:16.385Z,23.70
2022-10-31T17:01:50.818Z,25.05
2022-10-31T17:04:18.936Z,22.55
2022-10-31T17:25:59.523Z,30.42
2022-10-31T17:28:27.779Z,31.88
2022-10-31T17:30:58.415Z,37.08
2022-10-31T17:33:26.670Z,34.10
2022-10-31T17:35:55.154Z,32.65
2022-10-31T17:38:23.303Z,31.45
2022-10-31T17:40:51.405Z,30.63
2022-10-31T17:43:22.936Z,31.80
2022-10-31T17:45:50.944Z,31.67
2022-10-31T17:48:18.984Z,31.83
2022-10-31T17:50:47.012Z,37.00
2022-10-31T17:53:15.140Z,39.42
2022-10-31T17:55:43.153Z,40.80
2022-10-31T17:58:12.343Z,39.20
2022-10-31T18:00:44.786Z,38.63
2022-10-31T18:03:15.774Z,44.22
2022-10-31T18:05:53.069Z,42.42
2022-10-31T18:08:21.249Z,51.42
2022-10-31T18:10:49.389Z,60.63
2022-10-31T18:13:17.362Z,47.72
2022-10-31T18:15:46.840Z,47.10
2022-10-31T18:18:14.834Z,51.03
2022-10-31T18:20:42.920Z,41.10
2022-10-31T18:23:11.223Z,47.67
2022-10-31T18:25:41.250Z,46.03
2022-10-31T18:28:09.562Z,38.53
2022-10-31T18:30:41.471Z,34.05
2022-10-31T18:33:11.314Z,41.08
2022-10-31T18:35:41.072Z,36.50
2022-10-31T18:38:09.577Z,46.38
2022-10-31T18:40:38.338Z,46.33
2022-10-31T18:43:07.147Z,37.38
2022-10-31T18:45:46.430Z,42.40
2022-10-31T18:48:18.346Z,39.10
2022-10-31T18:50:46.910Z,51.88
2022-10-31T18:53:14.969Z,48.13
2022-10-31T18:55:47.239Z,58.38
2022-10-31T18:58:19.232Z,62.05
2022-10-31T19:00:48.261Z,61.60
2022-10-31T19:03:21.923Z,51.60
2022-10-31T19:05:59.047Z,42.88
2022-10-31T19:10:55.974Z,41.33
2022-10-31T19:13:24.595Z,40.33
2022-10-31T19:15:53.901Z,41.90
2022-10-31T19:18:23.355Z,40.17
2022-10-31T19:20:51.315Z,41.15
2022-10-31T19:23:20.176Z,38.95
2022-10-31T19:25:48.648Z,49.03
2022-10-31T19:28:16.743Z,48.08
2022-10-31T19:30:53.044Z,52.25
2022-10-31T19:33:21.096Z,62.58
2022-10-31T19:35:50.584Z,62.25
2022-10-31T19:38:18.620Z,72.50
2022-10-31T19:40:46.940Z,65.30
2022-10-31T19:43:15.081Z,53.85
2022-10-31T19:45:54.970Z,48.45
2022-10-31T19:48:23.240Z,34.88
2022-10-31T19:50:58.421Z,41.80
2022-10-31T19:53:26.757Z,50.53
2022-10-31T19:55:55.112Z,37.78
2022-10-31T19:58:23.206Z,44.65
2022-10-31T20:00:51.405Z,43.63
2022-10-31T20:03:22.507Z,45.47
2022-10-31T20:05:52.494Z,38.92
2022-10-31T20:08:22.305Z,32.22
2022-10-31T20:10:57.391Z,47.58
2022-10-31T20:13:27.120Z,39.25
2022-10-31T20:16:00.123Z,44.47
2022-10-31T20:18:29.687Z,46.20
2022-10-31T20:21:05.071Z,45.70
2022-10-31T20:23:33.533Z,44.65
2022-10-31T20:26:02.240Z,46.10
2022-10-31T20:28:30.986Z,47.75
2022-10-31T20:30:59.393Z,44.47
2022-10-31T20:33:27.784Z,41.72
2022-10-31T20:35:56.038Z,47.78
2022-10-31T20:38:25.391Z,49.90
2022-10-31T20:40:53.424Z,52.22
2022-10-31T20:43:21.457Z,67.80
2022-10-31T20:45:49.461Z,54.67
2022-10-31T20:48:17.558Z,56.53
2022-10-31T20:50:45.596Z,48.85
2022-10-31T20:53:13.691Z,44.40
2022-10-31T20:55:43.196Z,41.08
2022-10-31T20:58:11.255Z,35.67
2022-10-31T21:00:39.689Z,31.00
2022-10-31T21:03:07.858Z,29.02
2022-10-31T21:05:35.901Z,26.83
2022-10-31T21:08:04.164Z,26.73
2022-10-31T21:10:32.206Z,25.25
2022-10-31T21:13:01.889Z,24.02
2022-10-31T21:15:30.215Z,24.20
2022-10-31T21:17:58.247Z,24.48
2022-10-31T21:20:26.304Z,23.77
2022-10-31T21:22:55.356Z,24.50
2022-10-31T21:25:23.391Z,27.02
2022-10-31T21:27:51.835Z,27.23
2022-10-31T21:30:21.309Z,27.23
2022-10-31T21:32:49.407Z,28.75
2022-10-31T21:35:17.697Z,27.00
2022-10-31T21:37:45.693Z,24.00
2022-10-31T21:40:14.205Z,24.60
2022-10-31T21:42:43.559Z,22.90
2022-10-31T21:45:11.973Z,23.80
2022-10-31T21:47:42.265Z,23.35
2022-10-31T21:50:11.175Z,21.65
2022-10-31T21:52:39.262Z,21.35
2022-10-31T21:55:07.957Z,20.95
2022-10-31T21:57:36.501Z,20.13
2022-10-31T22:00:07.039Z,20.90
2022-10-31T22:02:36.865Z,18.27
2022-10-31T22:05:06.825Z,19.15
2022-10-31T22:07:34.931Z,19.35
2022-10-31T22:10:02.944Z,19.25
2022-10-31T22:12:30.783Z,20.83
2022-10-31T22:14:58.716Z,19.20
2022-10-31T22:17:27.802Z,20.20
2022-10-31T22:19:58.204Z,22.48
2022-10-31T22:22:27.486Z,24.42
2022-10-31T22:24:55.353Z,20.95
2022-10-31T22:27:23.527Z,20.23
2022-10-31T22:29:56.316Z,17.42
2022-10-31T22:32:27.199Z,18.27
2022-10-31T22:34:55.185Z,17.83
2022-10-31T22:37:23.191Z,17.08
2022-10-31T22:39:52.651Z,16.17
2022-10-31T22:42:20.899Z,14.90
2022-10-31T22:44:48.992Z,13.02
2022-10-31T22:47:17.035Z,14.48
2022-10-31T22:49:45.034Z,15.00
2022-10-31T22:52:12.995Z,14.27
2022-10-31T22:54:40.960Z,14.38
2022-10-31T22:57:10.601Z,13.75
2022-10-31T22:59:38.612Z,13.15
2022-10-31T23:02:08.500Z,13.02
2022-10-31T23:04:38.109Z,12.52
2022-10-31T23:07:06.228Z,11.77
2022-10-31T23:09:34.284Z,12.07
2022-10-31T23:12:16.732Z,11.32
2022-10-31T23:14:46.148Z,11.10
2022-10-31T23:17:17.731Z,10.35
2022-10-31T23:19:46.748Z,10.70
2022-10-31T23:22:14.802Z,10.48
2022-10-31T23:24:45.464Z,10.05
2022-10-31T23:27:14.965Z,9.98
2022-10-31T23:29:47.519Z,10.32
2022-10-31T23:32:19.972Z,10.13
2022-10-31T23:34:49.376Z,9.93
2022-10-31T23:37:19.044Z,10.30
2022-10-31T23:39:47.493Z,8.98
2022-10-31T23:42:15.827Z,8.95
2022-10-31T23:44:44.368Z,8.82
2022-10-31T23:47:14.206Z,8.10
2022-10-31T23:49:42.450Z,7.95
2022-10-31T23:52:11.622Z,7.63
2022-10-31T23:54:40.051Z,8.45
2022-10-31T23:57:08.064Z,8.38
2022-10-31T23:59:36.801Z,7.15
